createdAt,value
2018-01-24T00:02:18.255Z,93.57
2018-01-24T00:04:45.862Z,93.78
2018-01-24T00:07:13.797Z,93.95
2018-01-24T00:09:41.376Z,93.96
2018-01-24T00:12:08.947Z,94.24
2018-01-24T00:14:36.512Z,94.42
2018-01-24T00:17:04.265Z,94.45
2018-01-24T00:19:31.850Z,94.45
2018-01-24T00:21:59.391Z,94.45
2018-01-24T00:24:26.973Z,94.53
2018-01-24T00:26:54.522Z,94.60
2018-01-24T00:29:22.453Z,94.64
2018-01-24T00:31:50.374Z,94.86
2018-01-24T00:34:17.951Z,94.94
2018-01-24T00:36:45.490Z,94.83
2018-01-24T00:39:13.263Z,94.57
2018-01-24T00:41:40.831Z,94.43
2018-01-24T00:44:08.413Z,94.55
2018-01-24T00:46:35.969Z,94.52
2018-01-24T00:49:03.694Z,94.50
2018-01-24T00:51:31.286Z,94.71
2018-01-24T00:53:58.860Z,94.82
2018-01-24T00:56:26.466Z,94.88
2018-01-24T00:58:54.029Z,95.08
2018-01-24T01:01:21.613Z,95.27
2018-01-24T01:03:49.224Z,95.40
2018-01-24T01:06:16.834Z,95.59
2018-01-24T01:08:44.394Z,95.16
2018-01-24T01:11:13.161Z,95.08
2018-01-24T01:13:40.733Z,95.05
2018-01-24T01:16:09.001Z,94.42
2018-01-24T01:18:36.631Z,94.50
2018-01-24T01:21:04.182Z,94.46
2018-01-24T01:23:32.574Z,93.68
2018-01-24T01:26:00.146Z,93.99
2018-01-24T01:28:27.725Z,93.67
2018-01-24T01:30:55.322Z,93.80
2018-01-24T01:33:23.060Z,94.05
2018-01-24T01:35:50.641Z,94.19
2018-01-24T01:38:18.193Z,93.07
2018-01-24T01:40:45.763Z,93.30
2018-01-24T01:43:13.930Z,92.99
2018-01-24T01:45:41.567Z,93.14
2018-01-24T01:48:09.157Z,93.34
2018-01-24T01:50:36.750Z,93.65
2018-01-24T01:53:04.409Z,93.85
2018-01-24T01:55:31.989Z,94.01
2018-01-24T01:57:59.533Z,94.17
2018-01-24T02:00:27.171Z,94.17
2018-01-24T02:02:54.751Z,94.24
2018-01-24T02:05:22.371Z,94.28
2018-01-24T02:07:50.247Z,94.45
2018-01-24T02:10:17.808Z,94.46
2018-01-24T02:12:45.400Z,94.52
2018-01-24T02:15:13.971Z,94.61
2018-01-24T02:17:41.531Z,93.77
2018-01-24T02:20:09.176Z,93.96
2018-01-24T02:22:36.792Z,94.37
2018-01-24T02:25:04.395Z,94.41
2018-01-24T02:27:31.971Z,94.53
2018-01-24T02:29:59.609Z,94.67
2018-01-24T02:32:27.197Z,94.64
2018-01-24T02:34:54.750Z,94.04
2018-01-24T02:37:22.545Z,94.25
2018-01-24T02:39:50.201Z,94.08
2018-01-24T02:42:17.757Z,94.02
2018-01-24T02:44:45.370Z,93.40
2018-01-24T02:47:13.498Z,93.48
2018-01-24T02:49:41.057Z,93.62
2018-01-24T02:52:08.689Z,93.80
2018-01-24T02:54:36.236Z,93.74
2018-01-24T02:57:03.822Z,93.91
2018-01-24T02:59:31.440Z,94.25
2018-01-24T03:02:00.341Z,94.22
2018-01-24T03:04:28.945Z,94.10
2018-01-24T03:06:56.502Z,94.29
2018-01-24T03:09:25.649Z,94.34
2018-01-24T03:11:53.254Z,93.93
2018-01-24T03:14:21.244Z,93.85
2018-01-24T03:16:49.178Z,94.26
2018-01-24T03:19:17.155Z,94.20
2018-01-24T03:21:44.793Z,94.37
2018-01-24T03:24:12.358Z,94.62
2018-01-24T03:26:39.922Z,94.53
2018-01-24T03:29:08.322Z,94.52
2018-01-24T03:31:35.902Z,94.79
2018-01-24T03:34:03.461Z,94.65
2018-01-24T03:36:31.106Z,94.67
2018-01-24T03:39:00.363Z,94.80
2018-01-24T03:41:28.616Z,94.43
2018-01-24T03:43:56.194Z,94.62
2018-01-24T03:46:23.897Z,93.87
2018-01-24T03:48:51.496Z,93.78
2018-01-24T03:51:19.076Z,93.75
2018-01-24T03:53:46.661Z,93.93
2018-01-24T03:56:14.223Z,93.80
2018-01-24T03:58:45.259Z,93.70
2018-01-24T04:01:13.022Z,93.92
2018-01-24T04:03:40.631Z,94.02
2018-01-24T04:06:08.226Z,94.12
2018-01-24T04:08:35.931Z,94.19
2018-01-24T04:11:03.553Z,94.22
2018-01-24T04:13:31.124Z,94.29
2018-01-24T04:15:58.713Z,94.11
2018-01-24T04:18:26.304Z,93.83
2018-01-24T04:20:53.849Z,93.77
2018-01-24T04:23:21.667Z,94.18
2018-01-24T04:25:49.332Z,93.60
2018-01-24T04:28:16.924Z,93.69
2018-01-24T04:30:44.532Z,93.78
2018-01-24T04:33:12.558Z,93.94
2018-01-24T04:35:40.150Z,93.46
2018-01-24T04:38:07.736Z,93.33
2018-01-24T04:40:35.304Z,93.83
2018-01-24T04:43:02.895Z,94.05
2018-01-24T04:45:30.507Z,94.08
2018-01-24T04:47:58.105Z,94.02
2018-01-24T04:50:25.696Z,94.11
2018-01-24T04:52:53.293Z,94.27
2018-01-24T04:55:21.975Z,94.36
2018-01-24T04:57:49.600Z,94.33
2018-01-24T05:00:17.167Z,94.34
2018-01-24T05:05:35.875Z,94.57
2018-01-24T05:08:03.453Z,94.29
2018-01-24T05:10:31.798Z,93.83
2018-01-24T05:12:59.406Z,94.10
2018-01-24T05:15:27.351Z,94.06
2018-01-24T05:17:55.009Z,93.95
2018-01-24T05:20:32.561Z,94.15
2018-01-24T05:23:00.182Z,94.26
2018-01-24T05:25:27.839Z,94.04
2018-01-24T05:27:55.606Z,93.74
2018-01-24T05:30:23.188Z,93.79
2018-01-24T05:32:50.753Z,93.63
2018-01-24T05:35:18.607Z,93.76
2018-01-24T05:37:46.239Z,94.00
2018-01-24T05:40:14.085Z,93.69
2018-01-24T05:42:41.712Z,93.58
2018-01-24T05:45:11.723Z,93.17
2018-01-24T05:47:39.289Z,93.08
2018-01-24T05:50:06.914Z,92.04
2018-01-24T05:52:34.526Z,91.44
2018-01-24T05:55:02.896Z,91.86
2018-01-24T05:57:30.794Z,91.91
2018-01-24T05:59:58.447Z,91.15
2018-01-24T06:02:26.006Z,91.32
2018-01-24T06:04:53.585Z,91.80
2018-01-24T06:07:22.140Z,91.81
2018-01-24T06:09:49.723Z,92.06
2018-01-24T06:12:17.282Z,92.02
2018-01-24T06:14:44.900Z,91.91
2018-01-24T06:17:12.546Z,91.53
2018-01-24T06:19:40.090Z,91.57
2018-01-24T06:22:07.692Z,91.25
2018-01-24T06:24:35.486Z,90.60
2018-01-24T06:27:04.186Z,90.33
2018-01-24T06:29:33.153Z,90.52
2018-01-24T06:32:01.578Z,90.37
2018-01-24T06:34:29.206Z,90.20
2018-01-24T06:39:30.482Z,90.58
2018-01-24T06:41:58.085Z,90.72
2018-01-24T06:44:25.655Z,90.23
2018-01-24T06:46:53.240Z,90.26
2018-01-24T06:49:20.923Z,90.64
2018-01-24T06:51:48.641Z,90.83
2018-01-24T06:57:07.202Z,90.81
2018-01-24T06:59:34.856Z,90.95
2018-01-24T07:02:02.419Z,90.81
2018-01-24T07:04:30.002Z,90.86
2018-01-24T07:07:00.572Z,91.22
2018-01-24T07:09:28.920Z,91.38
2018-01-24T07:12:10.088Z,91.35
2018-01-24T07:14:46.489Z,91.50
2018-01-24T07:17:18.357Z,91.48
2018-01-24T07:19:49.046Z,91.16
2018-01-24T07:22:16.669Z,90.23
2018-01-24T07:24:44.217Z,89.58
2018-01-24T07:27:12.264Z,88.53
2018-01-24T07:29:39.873Z,88.81
2018-01-24T07:32:07.401Z,88.88
2018-01-24T07:34:34.970Z,88.69
2018-01-24T07:37:02.570Z,88.27
2018-01-24T07:39:30.339Z,88.31
2018-01-24T07:41:58.146Z,87.75
2018-01-24T07:44:25.745Z,87.97
2018-01-24T07:46:53.286Z,88.63
2018-01-24T07:49:23.445Z,88.34
2018-01-24T07:51:51.070Z,88.47
2018-01-24T07:54:21.285Z,88.87
2018-01-24T07:56:48.853Z,89.16
2018-01-24T07:59:19.168Z,89.55
2018-01-24T08:01:46.750Z,89.93
2018-01-24T08:04:14.329Z,89.79
2018-01-24T08:06:41.923Z,89.95
2018-01-24T08:09:11.131Z,89.82
2018-01-24T08:11:38.702Z,90.11
2018-01-24T08:14:06.245Z,90.62
2018-01-24T08:16:33.788Z,90.76
2018-01-24T08:19:01.446Z,90.81
2018-01-24T08:21:29.722Z,90.77
2018-01-24T08:23:57.274Z,90.76
2018-01-24T08:26:24.865Z,91.28
2018-01-24T08:28:52.401Z,90.63
2018-01-24T08:31:20.088Z,89.48
2018-01-24T08:33:47.670Z,89.53
2018-01-24T08:36:15.333Z,89.99
2018-01-24T08:38:42.885Z,89.37
2018-01-24T08:41:11.533Z,89.26
2018-01-24T08:43:39.090Z,89.32
2018-01-24T08:46:06.621Z,89.30
2018-01-24T08:48:34.205Z,89.23
2018-01-24T08:51:01.770Z,88.75
2018-01-24T08:53:29.351Z,88.77
2018-01-24T08:55:56.882Z,88.22
2018-01-24T08:58:24.427Z,87.98
2018-01-24T09:00:52.009Z,87.07
2018-01-24T09:03:19.551Z,86.60
2018-01-24T09:05:47.490Z,84.74
2018-01-24T09:08:15.057Z,81.00
2018-01-24T09:10:42.611Z,81.52
2018-01-24T09:13:10.630Z,82.10
2018-01-24T09:15:38.245Z,82.07
2018-01-24T09:18:06.218Z,82.29
2018-01-24T09:20:33.760Z,81.97
2018-01-24T09:23:01.412Z,81.07
2018-01-24T09:25:28.990Z,79.94
2018-01-24T09:27:56.601Z,81.19
2018-01-24T09:30:24.580Z,82.18
2018-01-24T09:32:52.140Z,82.46
2018-01-24T09:35:21.418Z,82.52
2018-01-24T09:37:49.036Z,83.27
2018-01-24T09:40:16.597Z,83.60
2018-01-24T09:42:44.121Z,83.02
2018-01-24T09:45:12.428Z,83.91
2018-01-24T09:47:40.022Z,83.62
2018-01-24T09:50:07.570Z,82.79
2018-01-24T09:52:35.147Z,81.81
2018-01-24T09:55:02.734Z,77.89
2018-01-24T09:57:30.285Z,76.59
2018-01-24T09:59:57.883Z,73.00
2018-01-24T10:02:25.916Z,70.94
2018-01-24T10:04:53.483Z,72.23
2018-01-24T10:07:21.086Z,71.94
2018-01-24T10:09:48.616Z,72.60
2018-01-24T10:12:16.157Z,72.94
2018-01-24T10:14:43.740Z,74.20
2018-01-24T10:17:12.328Z,74.51
2018-01-24T10:19:39.921Z,74.46
2018-01-24T10:22:07.507Z,74.47
2018-01-24T10:24:35.094Z,74.57
2018-01-24T10:27:02.941Z,74.94
2018-01-24T10:29:30.505Z,74.83
2018-01-24T10:31:58.100Z,74.56
2018-01-24T10:34:25.864Z,75.05
2018-01-24T10:36:53.441Z,75.24
2018-01-24T10:39:21.613Z,75.42
2018-01-24T10:41:49.409Z,75.28
2018-01-24T10:44:17.227Z,75.29
2018-01-24T10:46:44.804Z,74.12
2018-01-24T10:49:12.750Z,74.73
2018-01-24T10:51:40.288Z,74.43
2018-01-24T10:54:08.098Z,74.60
2018-01-24T10:56:35.644Z,74.67
2018-01-24T10:59:03.202Z,76.43
2018-01-24T11:01:32.419Z,73.33
2018-01-24T11:04:01.476Z,73.39
2018-01-24T11:06:29.019Z,73.35
2018-01-24T11:08:57.720Z,73.99
2018-01-24T11:11:25.442Z,74.85
2018-01-24T11:13:54.880Z,75.08
2018-01-24T11:16:22.725Z,75.75
2018-01-24T11:18:50.488Z,76.25
2018-01-24T11:21:18.524Z,76.49
2018-01-24T11:23:46.142Z,76.85
2018-01-24T11:26:13.688Z,77.30
2018-01-24T11:28:41.704Z,77.70
2018-01-24T11:31:11.145Z,78.30
2018-01-24T11:33:39.901Z,78.24
2018-01-24T11:36:08.302Z,78.33
2018-01-24T11:38:35.853Z,78.13
2018-01-24T11:41:03.630Z,77.75
2018-01-24T11:43:31.197Z,77.19
2018-01-24T11:45:59.948Z,77.37
2018-01-24T11:48:27.729Z,78.43
2018-01-24T11:50:55.301Z,77.67
2018-01-24T11:53:22.910Z,76.78
2018-01-24T11:55:53.601Z,77.07
2018-01-24T11:58:21.253Z,77.20
2018-01-24T12:00:48.816Z,76.81
2018-01-24T12:03:16.432Z,76.72
2018-01-24T12:05:44.078Z,76.63
2018-01-24T12:08:11.791Z,76.90
2018-01-24T12:10:39.367Z,77.03
2018-01-24T12:13:07.404Z,76.70
2018-01-24T12:15:35.030Z,76.84
2018-01-24T12:18:02.810Z,75.78
2018-01-24T12:20:30.364Z,75.74
2018-01-24T12:22:57.904Z,75.16
2018-01-24T12:25:25.492Z,74.39
2018-01-24T12:27:53.031Z,73.07
2018-01-24T12:30:20.604Z,68.00
2018-01-24T12:32:48.206Z,65.00
2018-01-24T12:35:15.773Z,62.62
2018-01-24T12:37:43.365Z,61.22
2018-01-24T12:40:11.057Z,61.06
2018-01-24T12:42:38.640Z,60.96
2018-01-24T12:45:06.765Z,60.98
2018-01-24T12:47:34.468Z,62.22
2018-01-24T12:50:02.049Z,62.31
2018-01-24T12:52:29.636Z,62.19
2018-01-24T12:54:57.213Z,60.54
2018-01-24T12:57:24.786Z,61.28
2018-01-24T12:59:52.368Z,59.25
2018-01-24T13:02:20.000Z,58.54
2018-01-24T13:04:47.609Z,58.12
2018-01-24T13:07:15.893Z,59.47
2018-01-24T13:09:43.536Z,56.88
2018-01-24T13:12:11.564Z,56.83
2018-01-24T13:14:39.551Z,58.57
2018-01-24T13:17:08.656Z,60.30
2018-01-24T13:19:36.259Z,59.40
2018-01-24T13:22:03.873Z,60.73
2018-01-24T13:24:31.886Z,61.68
2018-01-24T13:26:59.440Z,58.43
2018-01-24T13:29:27.268Z,58.72
2018-01-24T13:31:54.860Z,58.89
2018-01-24T13:34:23.454Z,57.45
2018-01-24T13:36:50.987Z,56.24
2018-01-24T13:39:19.097Z,58.43
2018-01-24T13:41:46.646Z,59.46
2018-01-24T13:44:14.241Z,59.91
2018-01-24T13:46:41.849Z,58.40
2018-01-24T13:49:10.616Z,57.52
2018-01-24T13:51:38.276Z,59.02
2018-01-24T13:54:08.146Z,59.25
2018-01-24T13:56:35.716Z,58.88
2018-01-24T13:59:03.291Z,60.81
2018-01-24T14:01:30.916Z,60.30
2018-01-24T14:03:58.500Z,63.30
2018-01-24T14:06:26.274Z,62.07
2018-01-24T14:08:53.829Z,60.88
2018-01-24T14:11:21.699Z,63.63
2018-01-24T14:13:49.445Z,64.08
2018-01-24T14:16:17.008Z,64.63
2018-01-24T14:18:44.604Z,65.83
2018-01-24T14:21:12.866Z,64.09
2018-01-24T14:23:40.421Z,64.86
2018-01-24T14:26:08.055Z,63.37
2018-01-24T14:28:35.703Z,66.93
2018-01-24T14:31:03.285Z,68.47
2018-01-24T14:33:30.886Z,70.80
2018-01-24T14:35:58.425Z,72.30
2018-01-24T14:38:25.974Z,74.04
2018-01-24T14:40:53.659Z,74.87
2018-01-24T14:43:21.192Z,76.52
2018-01-24T14:45:48.757Z,76.90
2018-01-24T14:48:16.359Z,76.00
2018-01-24T14:50:43.960Z,76.33
2018-01-24T14:53:11.689Z,77.58
2018-01-24T14:55:39.361Z,78.40
2018-01-24T14:58:06.901Z,79.98
2018-01-24T15:00:34.520Z,81.30
2018-01-24T15:03:02.144Z,83.01
2018-01-24T15:05:29.730Z,84.04
2018-01-24T15:07:57.267Z,85.24
2018-01-24T15:10:25.134Z,85.92
2018-01-24T15:12:54.544Z,86.17
2018-01-24T15:15:22.461Z,86.31
2018-01-24T15:17:50.255Z,86.83
2018-01-24T15:20:17.857Z,87.45
2018-01-24T15:22:45.530Z,87.58
2018-01-24T15:25:13.284Z,88.20
2018-01-24T15:27:40.845Z,88.65
2018-01-24T15:30:08.398Z,89.15
2018-01-24T15:32:36.650Z,89.66
2018-01-24T15:35:04.206Z,89.94
2018-01-24T15:37:32.270Z,89.61
2018-01-24T15:40:00.076Z,89.62
2018-01-24T15:42:27.706Z,89.60
2018-01-24T15:44:55.294Z,90.01
2018-01-24T15:47:24.042Z,90.13
2018-01-24T15:49:54.133Z,89.84
2018-01-24T15:52:24.432Z,90.13
2018-01-24T15:54:52.008Z,90.29
2018-01-24T15:57:22.076Z,90.33
2018-01-24T15:59:49.746Z,90.89
2018-01-24T16:02:17.305Z,91.49
2018-01-24T16:04:44.857Z,91.96
2018-01-24T16:07:13.117Z,92.58
2018-01-24T16:09:40.693Z,92.81
2018-01-24T16:12:08.401Z,92.73
2018-01-24T16:14:35.969Z,92.86
2018-01-24T16:17:03.648Z,93.03
2018-01-24T16:19:31.534Z,93.02
2018-01-24T16:21:59.081Z,93.25
2018-01-24T16:24:26.630Z,93.39
2018-01-24T16:26:54.200Z,93.69
2018-01-24T16:29:21.915Z,93.67
2018-01-24T16:31:49.733Z,93.63
2018-01-24T16:34:17.296Z,93.77
2018-01-24T16:36:44.872Z,93.82
2018-01-24T16:39:12.488Z,93.86
2018-01-24T16:41:40.096Z,93.98
2018-01-24T16:44:07.630Z,94.07
2018-01-24T16:46:35.241Z,94.48
2018-01-24T16:49:02.954Z,94.84
2018-01-24T16:51:32.004Z,95.09
2018-01-24T16:53:59.533Z,94.74
2018-01-24T16:56:27.100Z,94.63
2018-01-24T16:58:54.648Z,94.36
2018-01-24T17:01:22.195Z,94.44
2018-01-24T17:03:49.846Z,94.35
2018-01-24T17:06:17.402Z,94.42
2018-01-24T17:08:45.000Z,94.48
2018-01-24T17:11:13.421Z,94.50
2018-01-24T17:13:40.992Z,94.57
2018-01-24T17:16:08.590Z,94.69
2018-01-24T17:18:36.194Z,94.29
2018-01-24T17:21:03.799Z,94.35
2018-01-24T17:23:31.753Z,94.61
2018-01-24T17:25:59.320Z,94.63
2018-01-24T17:28:26.887Z,94.63
2018-01-24T17:30:54.480Z,95.06
2018-01-24T17:33:22.036Z,95.28
2018-01-24T17:35:49.594Z,94.94
2018-01-24T17:38:17.354Z,94.35
2018-01-24T17:40:44.945Z,94.45
2018-01-24T17:43:12.778Z,94.29
2018-01-24T17:45:40.607Z,94.54
2018-01-24T17:48:08.157Z,94.51
2018-01-24T17:50:35.716Z,94.39
2018-01-24T17:53:03.291Z,94.04
2018-01-24T17:55:30.866Z,93.68
2018-01-24T17:57:58.419Z,93.78
2018-01-24T18:00:26.074Z,93.69
2018-01-24T18:02:53.649Z,94.04
2018-01-24T18:05:22.558Z,94.11
2018-01-24T18:07:50.173Z,94.12
2018-01-24T18:10:17.735Z,94.53
2018-01-24T18:12:45.327Z,94.39
2018-01-24T18:15:13.074Z,94.03
2018-01-24T18:17:40.643Z,93.72
2018-01-24T18:20:08.209Z,93.83
2018-01-24T18:22:35.820Z,93.87
2018-01-24T18:25:03.469Z,93.95
2018-01-24T18:27:31.086Z,94.17
2018-01-24T18:29:58.765Z,94.10
2018-01-24T18:32:26.315Z,94.13
2018-01-24T18:34:53.975Z,94.31
2018-01-24T18:37:21.751Z,94.40
2018-01-24T18:39:49.458Z,94.24
2018-01-24T18:42:17.279Z,94.54
2018-01-24T18:44:44.832Z,94.31
2018-01-24T18:47:13.726Z,94.05
2018-01-24T18:49:41.366Z,94.00
2018-01-24T18:52:09.478Z,94.22
2018-01-24T18:54:37.069Z,94.44
2018-01-24T18:57:04.740Z,94.46
2018-01-24T18:59:32.504Z,94.33
2018-01-24T19:02:00.445Z,94.36
2018-01-24T19:04:28.177Z,94.32
2018-01-24T19:06:55.784Z,94.41
2018-01-24T19:09:24.022Z,94.32
2018-01-24T19:11:51.744Z,94.09
2018-01-24T19:14:19.434Z,94.25
2018-01-24T19:16:48.952Z,94.18
2018-01-24T19:19:18.708Z,94.66
2018-01-24T19:21:46.399Z,94.55
2018-01-24T19:24:13.982Z,94.63
2018-01-24T19:26:41.598Z,94.64
2018-01-24T19:29:09.220Z,94.91
2018-01-24T19:31:36.817Z,95.16
2018-01-24T19:34:04.467Z,94.84
2018-01-24T19:36:35.266Z,94.30
2018-01-24T19:39:02.846Z,93.96
2018-01-24T19:41:30.443Z,94.20
2018-01-24T19:44:01.790Z,94.35
2018-01-24T19:46:29.642Z,94.79
2018-01-24T19:48:57.225Z,94.64
2018-01-24T19:51:26.205Z,94.55
2018-01-24T19:54:00.286Z,94.83
2018-01-24T19:56:27.869Z,95.29
2018-01-24T19:58:55.426Z,95.66
2018-01-24T20:01:22.992Z,95.71
2018-01-24T20:03:50.575Z,95.36
2018-01-24T20:06:18.312Z,95.12
2018-01-24T20:11:37.873Z,95.03
2018-01-24T20:14:05.434Z,95.17
2018-01-24T20:16:33.034Z,94.87
2018-01-24T20:19:00.715Z,95.18
2018-01-24T20:21:28.549Z,95.12
2018-01-24T20:23:56.151Z,95.22
2018-01-24T20:26:24.905Z,94.98
2018-01-24T20:28:52.463Z,94.81
2018-01-24T20:31:20.374Z,94.86
2018-01-24T20:33:48.083Z,94.83
2018-01-24T20:36:15.665Z,95.13
2018-01-24T20:38:43.235Z,95.46
2018-01-24T20:41:11.915Z,95.40
2018-01-24T20:43:39.475Z,95.21
2018-01-24T20:46:07.101Z,95.19
2018-01-24T20:48:34.650Z,95.56
2018-01-24T20:51:02.189Z,95.41
2018-01-24T20:53:30.949Z,95.47
2018-01-24T20:55:58.522Z,95.27
2018-01-24T20:58:26.090Z,95.38
2018-01-24T21:00:53.692Z,95.20
2018-01-24T21:03:21.574Z,95.30
2018-01-24T21:05:49.137Z,95.02
2018-01-24T21:08:16.794Z,95.08
2018-01-24T21:10:44.380Z,95.01
2018-01-24T21:13:13.038Z,94.84
2018-01-24T21:15:40.632Z,94.96
2018-01-24T21:18:08.218Z,94.96
2018-01-24T21:20:35.797Z,95.40
2018-01-24T21:23:03.410Z,95.19
2018-01-24T21:25:30.963Z,95.13
2018-01-24T21:27:58.565Z,94.86
2018-01-24T21:30:26.512Z,94.78
2018-01-24T21:33:06.613Z,94.87
2018-01-24T21:35:45.927Z,94.93
2018-01-24T21:38:13.638Z,94.98
2018-01-24T21:40:41.241Z,95.31
2018-01-24T21:43:09.727Z,95.27
2018-01-24T21:45:37.314Z,95.58
2018-01-24T21:48:04.875Z,95.20
2018-01-24T21:50:32.436Z,95.02
2018-01-24T21:53:00.037Z,95.12
2018-01-24T21:55:27.607Z,95.40
2018-01-24T21:57:55.272Z,95.58
2018-01-24T22:00:22.868Z,95.99
2018-01-24T22:02:50.433Z,95.77
2018-01-24T22:05:18.475Z,95.86
2018-01-24T22:07:46.056Z,95.94
2018-01-24T22:10:13.705Z,95.96
2018-01-24T22:12:41.323Z,95.70
2018-01-24T22:15:09.281Z,95.62
2018-01-24T22:17:36.890Z,95.71
2018-01-24T22:22:55.611Z,95.57
2018-01-24T22:25:24.095Z,95.39
2018-01-24T22:27:51.852Z,95.88
2018-01-24T22:30:19.499Z,96.29
2018-01-24T22:32:47.047Z,95.96
2018-01-24T22:35:15.176Z,95.90
2018-01-24T22:37:42.829Z,95.74
2018-01-24T22:40:10.454Z,95.89
2018-01-24T22:42:38.080Z,95.60
2018-01-24T22:45:06.135Z,95.58
2018-01-24T22:47:33.737Z,95.61
2018-01-24T22:50:01.305Z,95.69
2018-01-24T22:52:28.986Z,95.49
2018-01-24T22:54:56.547Z,95.77
2018-01-24T22:57:25.278Z,95.89
2018-01-24T22:59:53.421Z,95.86
2018-01-24T23:02:21.083Z,95.24
2018-01-24T23:04:48.680Z,94.81
2018-01-24T23:07:16.853Z,95.06
2018-01-24T23:09:44.429Z,95.12
2018-01-24T23:12:14.952Z,95.40
2018-01-24T23:14:42.528Z,95.32
2018-01-24T23:17:12.259Z,95.51
2018-01-24T23:19:40.202Z,95.79
2018-01-24T23:22:07.756Z,95.90
2018-01-24T23:24:35.376Z,96.28
2018-01-24T23:27:08.458Z,96.20
2018-01-24T23:29:36.737Z,96.29
2018-01-24T23:32:06.015Z,96.01
2018-01-24T23:34:33.779Z,96.15
2018-01-24T23:37:01.364Z,96.28
2018-01-24T23:39:28.909Z,96.24
2018-01-24T23:41:56.531Z,96.08
2018-01-24T23:44:24.071Z,95.98
2018-01-24T23:46:51.615Z,96.15
2018-01-24T23:49:19.280Z,96.07
2018-01-24T23:51:46.886Z,95.77
2018-01-24T23:54:15.667Z,95.71
2018-01-24T23:56:46.209Z,95.87
2018-01-24T23:59:13.769Z,96.17
